Socorro, Texas
Current Conditions -  °F | °C
As of 7:41 PM on Friday 28 Nov 2014 (Local Time) from MMCS Reporting Station
Clear Clear  
Wind Chill: 10°   Ceiling: Unl
Heat Index: 10°   Visibility: 10mi
Dew Point: -1°   Wind: 0mph
Humidity: 47%   Direction: NA
Pressure: 30.04"   Gusts: NA
Location:  31.66°N, 106.3°W
Report Text: MMCS 290241Z 00000KT 10SM SKC 10/M01 A3004 RMK SLP150 57001 992 HZY
Loading
Personal Weather Stations






























Interactive Weather Map New forecast layout! Learn more

10-Day Weather Forecast

Advertisements
Track Severe Weather on mobile